| Date | Time | Temp. (oF) | Dew Point (oF) | Rel. Hum. (%) | Press. (in.) | Wind Dir. | Wind Speed (mph) | Hourly Rainfall (in.) |
|
|---|---|---|---|---|---|---|---|---|---|
| 1 | 02/13 | 00:00 | 12 | -1 | 55 | 30.09 | NNW | 9 | 0.00 |
| 2 | 02/12 | 23:00 | 14 | 0 | 53 | 30.05 | NNW | 13 | 0.00 |
| 3 | 02/12 | 22:00 | 16 | 2 | 54 | 30.02 | W | 18 | 0.00 |
| 4 | 02/12 | 21:00 | 19 | 3 | 51 | 29.98 | NNW | 9 | 0.00 |
| 5 | 02/12 | 20:00 | 21 | 5 | 51 | 29.95 | W | 18 | 0.00 |
| 6 | 02/12 | 19:00 | 24 | 8 | 52 | 29.91 | WNW | 7 | 0.00 |
| 7 | 02/12 | 18:00 | 26 | 9 | 49 | 29.87 | W | 6 | 0.00 |
| 8 | 02/12 | 17:00 | 30 | 11 | 45 | 29.80 | WNW | 13 | 0.00 |
| 9 | 02/12 | 16:00 | 32 | 11 | 43 | 29.78 | WNW | 16 | 0.00 |
| 10 | 02/12 | 15:00 | 35 | 14 | 43 | 29.76 | N | 12 | 0.00 |
| 11 | 02/12 | 14:00 | 35 | 19 | 52 | 29.76 | W | 6 | 0.00 |
| 12 | 02/12 | 13:00 | 36 | 20 | 52 | 29.76 | W | 16 | 0.00 |
| 13 | 02/12 | 12:00 | 35 | 22 | 60 | 29.78 | W | 13 | 0.00 |
| 14 | 02/12 | 11:00 | 35 | 27 | 73 | 29.79 | W | 10 | 0.00 |
| 15 | 02/12 | 10:00 | 32 | 30 | 94 | 29.80 | SSW | 3 | 0.00 |
| 16 | 02/12 | 09:00 | 31 | 27 | 88 | 29.81 | SSW | 4 | 0.00 |
| 17 | 02/12 | 08:00 | 31 | 25 | 80 | 29.78 | S | 3 | 0.00 |
| 18 | 02/12 | 07:00 | 31 | 25 | 79 | 29.79 | SSW | 2 | 0.00 |
| 19 | 02/12 | 06:00 | 30 | 24 | 79 | 29.79 | S | 4 | 0.00 |
| 20 | 02/12 | 05:00 | 30 | 23 | 78 | 29.79 | SSE | 2 | 0.00 |
| 21 | 02/12 | 04:00 | 30 | 23 | 75 | 29.81 | SSE | 0 | 0.00 |
| 22 | 02/12 | 03:00 | 30 | 22 | 72 | 29.82 | SSW | 3 | 0.00 |
| 23 | 02/12 | 02:00 | 31 | 22 | 70 | 29.84 | S | 2 | 0.00 |
| 24 | 02/12 | 01:00 | 31 | 22 | 70 | 29.85 | SSE | 0 | 0.00 |